»·PEaware :: N9258 KSNA-KTOA

N9258 :: KSNA-KTOA

FLIGHT INFORMATION

Flight Status: Arrived
Operator: Privately registered:
United States
More flights under this callsign
Pilot: EAA Chapter 723 (6570)
Aircraft: CESSNA 172 SKYHAWK
(C172)
More flights by this aircraft type
Origin: KSNA John Wayne-Orange Co
United States
Destination: KTOA Zamperini
United States
More flights between these airports :: More routes between these airports
Route: +SLI
File this flight plan on PilotEdge
Remarks: ILS 29R
Altitude:
(Current/Filed)
2,000ft
Speed:
(Current/Filed)
100kts
Departed: 03-Dec-19 01:03 PM
Arrived: 03-Dec-19 01:19 PM
Distance/Time
Traveled:
25nm/0:16
Distance/Time
To Go:
Arrived

Flight Plot

Page will automatically refresh every two minutes.


Map Options




Map Legend


Flown Route
Filed Route
Departure Airport
Arrival Airport
Navaid (VOR, NDB)
Fix

Horizontal Profiles

Position Reports

Time Latitude Longitude Heading Altitude Ground
Speed
03-Dec-19 12:21 33.678464 -117.862772 329 59ft 0kts
03-Dec-19 12:22 33.678465 -117.862773 329 59ft 0kts
03-Dec-19 12:23 33.678466 -117.862774 329 59ft 0kts
03-Dec-19 12:24 33.678467 -117.862774 329 59ft 0kts
03-Dec-19 12:25 33.678468 -117.862775 329 59ft 0kts
03-Dec-19 12:26 33.678469 -117.862776 329 59ft 0kts
03-Dec-19 12:27 33.678470 -117.862777 329 59ft 0kts
03-Dec-19 12:28 33.678471 -117.862777 329 59ft 0kts
03-Dec-19 12:29 33.678472 -117.862778 329 59ft 0kts
03-Dec-19 12:30 33.678473 -117.862779 329 59ft 0kts
03-Dec-19 12:31 33.678474 -117.862780 329 59ft 0kts
03-Dec-19 12:32 33.678475 -117.862780 329 59ft 0kts
03-Dec-19 12:33 33.678476 -117.862781 329 59ft 0kts
03-Dec-19 12:34 33.678477 -117.862782 329 59ft 0kts
03-Dec-19 12:35 33.678479 -117.862783 329 59ft 0kts
03-Dec-19 12:36 33.678480 -117.862783 329 59ft 0kts
03-Dec-19 12:37 33.678481 -117.862784 329 59ft 0kts
03-Dec-19 12:38 33.678482 -117.862785 329 59ft 0kts
03-Dec-19 12:39 33.678483 -117.862786 329 59ft 0kts
03-Dec-19 12:40 33.678484 -117.862786 329 59ft 0kts
03-Dec-19 12:41 33.678485 -117.862787 329 59ft 0kts
03-Dec-19 12:42 33.678486 -117.862788 329 59ft 0kts
03-Dec-19 12:43 33.678487 -117.862789 329 59ft 0kts
03-Dec-19 12:44 33.678488 -117.862789 329 59ft 0kts
03-Dec-19 12:45 33.678489 -117.862790 329 59ft 0kts
03-Dec-19 12:46 33.678490 -117.862791 329 59ft 0kts
03-Dec-19 12:47 33.678491 -117.862792 329 59ft 0kts
03-Dec-19 12:48 33.678492 -117.862792 329 59ft 0kts
03-Dec-19 12:49 33.678493 -117.862793 329 59ft 0kts
03-Dec-19 12:50 33.678494 -117.862794 329 59ft 0kts
03-Dec-19 12:51 33.678495 -117.862794 330 59ft 0kts
03-Dec-19 12:52 33.678496 -117.862795 330 59ft 0kts
03-Dec-19 12:53 33.678498 -117.862796 330 59ft 0kts
03-Dec-19 12:54 33.678499 -117.862797 330 59ft 0kts
03-Dec-19 12:55 33.678500 -117.862797 330 59ft 0kts
03-Dec-19 12:56 33.678501 -117.862798 330 59ft 0kts
03-Dec-19 12:57 33.679702 -117.863579 312 59ft 5kts
03-Dec-19 12:58 33.679740 -117.863630 306 59ft 0kts
03-Dec-19 13:00 33.679744 -117.863636 305 59ft 0kts
03-Dec-19 13:01 33.679744 -117.863638 305 59ft 0kts
03-Dec-19 13:02 33.679745 -117.863639 305 59ft 0kts
03-Dec-19 13:03 33.670917 -117.870396 219 325ft 84kts
03-Dec-19 13:04 33.656346 -117.896031 235 1540ft 96kts
03-Dec-19 13:05 33.643256 -117.924982 275 1926ft 106kts
03-Dec-19 13:06 33.650416 -117.959920 284 2054ft 112kts
03-Dec-19 13:07 33.658038 -117.998117 280 1973ft 123kts
03-Dec-19 13:08 33.663829 -118.037779 281 1959ft 119kts
03-Dec-19 13:09 33.670343 -118.075314 276 1991ft 113kts
03-Dec-19 13:10 33.676506 -118.112347 282 1971ft 115kts
03-Dec-19 13:11 33.681263 -118.149243 278 2005ft 113kts
03-Dec-19 13:12 33.694944 -118.178589 318 2058ft 107kts
03-Dec-19 13:13 33.713328 -118.205986 311 1966ft 99kts
03-Dec-19 13:14 33.729223 -118.229263 305 1909ft 82kts
03-Dec-19 13:15 33.744257 -118.249957 318 1897ft 86kts
03-Dec-19 13:16 33.758407 -118.272999 310 1698ft 89kts
03-Dec-19 13:16 33.773621 -118.291698 302 1197ft 92kts
03-Dec-19 13:18 33.791236 -118.320382 308 566ft 88kts
03-Dec-19 13:19 33.803381 -118.338568 309 106ft 35kts
03-Dec-19 13:19 33.805875 -118.343587 285 106ft 19kts
03-Dec-19 13:21 33.806043 -118.344258 285 106ft 0kts
03-Dec-19 13:21 33.806043 -118.344258 285 106ft 0kts
03-Dec-19 13:22 33.806043 -118.344258 285 106ft 0kts
03-Dec-19 13:24 33.806043 -118.344258 285 106ft 0kts
03-Dec-19 13:24 33.806043 -118.344258 285 106ft 0kts
03-Dec-19 13:25 33.806043 -118.344258 285 106ft 0kts
03-Dec-19 13:26 33.806043 -118.344258 285 106ft 0kts
03-Dec-19 13:27 33.806043 -118.344258 285 106ft 0kts
03-Dec-19 13:28 33.806043 -118.344258 285 106ft 0kts

Navigation Log

Ident Type
Flight plan parsing failed, navigation log unavailable